DFOO/BOY METAR and TAF weather

Enter ICAO airport designator
Station Type Date Time Source
DFOO METAR 2022/07/03 14:00 UTC NOAA

DFOO 031400Z 21007KT 150V290 9999 FEW016 SCT026 FEW033CB 31/21 Q1015


Station Type Date Time Source
DFOO Decoded METAR 2022/07/03 14:00 UTC NOAA

Bobo-Dioulasso, Burkina Faso (DFOO) 11-10N 004-19W 460M
Jul 03, 2022 - 10:00 AM EDT / 2022.07.03 1400 UTC
Wind: from the SSW (210 degrees) at 8 MPH (7 KT) (direction variable):0
Visibility: greater than 7 mile(s):0
Sky conditions: partly cloudy
Weather: Cumulonimbus clouds observed
Temperature: 87 F (31 C)
Dew Point: 69 F (21 C)
Relative Humidity: 55%
Pressure (altimeter): 29.97 in. Hg (1015 hPa)
ob: DFOO 031400Z 21007KT 150V290 9999 FEW016 SCT026 FEW033CB 31/21 Q1015
cycle: 14

Station Type Date Time Source
DFOO TAF 2022/07/03 12:27 UTC NOAA

TAF DFOO 031100Z 0312/0412 20008KT 9999 SCT016 PROB40
TEMPO 0315/0324 4000 TS SHRA SCT016 SCT030CB

Example: see airport list